Tropical Cyclones
[Index]
Main Index Home Page Stock Weather Photos Extreme Storms Discussion Storm News and Storm Chasing Reports Tropical Cyclones / Hurricanes / Typhoons Weather Data and Links Wild Fires / Bushfires Weather Observation Techniques Weather Picture Catalogue Tornado Pictures and Reports Stock Video Footage and DVDs for sale
Season 1984-1985 Tropical Cyclone MARGOT Track Map
Season 1984-1985 Summaries: [BoM-AU] [JTWC-AU] [JTWC-SIO] [JTWC-SPAC] [JTWC-SH]
<<- Previous TC | JTWC 1984-1985 Season | Next TC ->>

click for intensity scale information  Lat/long Grid: Show Hide

 Date Labels: Show Hide

Joint Typhoon Warning Centre Cyclone Data

Name: MARGOT

12 Apr 1985 06:00 UTC to 18 Apr 1985 18:00 UTC

    date/time    lat    long     hPa   cat  kts
1985-04-12 06    8.7   100.3                  35          
1985-04-12 12    8.8    99.4            1     40          
1985-04-12 18    9.1    99.0            1     45          
1985-04-13 00    9.5    98.9            1     45          
1985-04-13 06   10.0    99.2            1     50          
1985-04-13 12   10.5    99.7            2     55          
1985-04-13 18   11.0   100.3            2     60          
1985-04-14 00   11.5   100.8            2     60          
1985-04-14 06   12.1   101.3            2     65          
1985-04-14 12   13.1   102.0            2     65          
1985-04-14 18   14.1   103.0            2     70          
1985-04-15 00   14.7   104.3            2     65          
1985-04-15 06   15.4   105.5            2     60          
1985-04-15 12   16.3   106.4            2     60          
1985-04-15 18   17.3   107.3            2     55          
1985-04-16 00   18.0   108.2            2     55          
1985-04-16 06   18.6   109.0            1     50          
1985-04-16 12   19.0   109.6            1     45          
1985-04-16 18   19.0   110.1            1     40          
1985-04-17 00   18.8   110.6                  35          
1985-04-17 06   18.6   110.8                  30          
1985-04-17 12   18.3   110.7                  30          
1985-04-17 18   18.1   110.6                  30          
1985-04-18 00   17.9   110.5                  30          
1985-04-18 06   17.7   110.3                  30          
1985-04-18 12   17.5   110.2                  30          
1985-04-18 18   17.4   110.0                  25          
Winds are 1-min average.

Tropical cyclone tracks developed by Michael Bath using data from the Joint Typhoon Warning Centre Best Tracks and Google Maps.


[Australian Severe Weather index] [Copyright Notice] [Email Contacts] [Search This Site] [Privacy Policy]
Document: tropical_cyclone_margot.htm Updated: 18 September 2016